Autoridad de Aeronautica Civil de Panamá


taf




 

AERÓDROMOS

 

PRONOSTICO DE AERÓDROMO
TAF

AEROPUERTO INTL. DE TOCUMEN:


TAF MPTO 011100Z 0112/0218 05005KT 9999 SCT018 SCT090 PROB40 0117/0121 18009KT 6000 TSRA SCT015CB BKN090 TEMPO 0122/0123 24008KT=
AEROPUERTO MARCOS A. GELABERT:


TAF MPMG 011110Z 0112/0124 34007KT 9999 SCT018 SCT090 PROB40 0117/0121 19008KT 7000 TSRA SCT015CB BKN070=
AEROPUERTO ENRIQUE MALEK:


TAF MPDA 011110Z 0112/0124 21008KT 9999 SCT018 BKN090 PROB40 0116/0120 18012KT 6000 TSRA SCT008 SCT015CB BKN070=
AEROPUERTO PANAMA PACIFICO:


TAF MPPA 011110Z 0112/0218 01006KT 9999 SCT018 SCT090 PROB30 0117/0121 18008KT 6000 TSRA SCT015CB BKN090 TEMPO 0203/0205 VRB02KT=
AEROPUERTO SCARLETT MARTÍNEZ:


TAF MPSM 011110Z 0112/0218 35006KT 9999 SCT018 SCT090 PROB40 0117/0121 18009KT 6000 TSRA SCT015CB BKN090=


Contador: 3828